sensor_id;sensor_type;location;lat;lon;timestamp;temperature;humidity
18268;DHT22;9260;49.998;19.880;2022-10-16T00:07:00;10.90;99.90
18268;DHT22;9260;49.998;19.880;2022-10-16T00:17:03;11.00;99.90
18268;DHT22;9260;49.998;19.880;2022-10-16T00:27:08;11.10;99.90
18268;DHT22;9260;49.998;19.880;2022-10-16T00:37:12;11.20;99.90
18268;DHT22;9260;49.998;19.880;2022-10-16T00:47:20;11.20;99.90
18268;DHT22;9260;49.998;19.880;2022-10-16T00:57:26;11.30;99.90
18268;DHT22;9260;49.998;19.880;2022-10-16T01:07:39;11.20;99.90
18268;DHT22;9260;49.998;19.880;2022-10-16T01:17:51;11.20;99.90
18268;DHT22;9260;49.998;19.880;2022-10-16T01:28:00;11.20;99.90
18268;DHT22;9260;49.998;19.880;2022-10-16T01:38:08;11.10;99.90
18268;DHT22;9260;49.998;19.880;2022-10-16T01:48:18;11.00;99.90
18268;DHT22;9260;49.998;19.880;2022-10-16T01:58:24;11.00;99.90
18268;DHT22;9260;49.998;19.880;2022-10-16T02:08:30;11.00;99.90
18268;DHT22;9260;49.998;19.880;2022-10-16T02:18:34;10.90;99.90
18268;DHT22;9260;49.998;19.880;2022-10-16T02:28:42;10.60;99.90
18268;DHT22;9260;49.998;19.880;2022-10-16T02:38:49;10.40;99.90
18268;DHT22;9260;49.998;19.880;2022-10-16T02:48:53;10.20;99.90
18268;DHT22;9260;49.998;19.880;2022-10-16T02:58:57;10.10;99.90
18268;DHT22;9260;49.998;19.880;2022-10-16T03:09:02;10.10;99.90
18268;DHT22;9260;49.998;19.880;2022-10-16T03:19:05;10.10;99.90
18268;DHT22;9260;49.998;19.880;2022-10-16T03:29:10;10.00;99.90
18268;DHT22;9260;49.998;19.880;2022-10-16T03:39:13;9.60;99.90
18268;DHT22;9260;49.998;19.880;2022-10-16T03:49:18;9.00;99.90
18268;DHT22;9260;49.998;19.880;2022-10-16T03:59:21;8.60;99.90
18268;DHT22;9260;49.998;19.880;2022-10-16T04:09:25;8.60;99.90
18268;DHT22;9260;49.998;19.880;2022-10-16T04:19:29;8.80;99.90
18268;DHT22;9260;49.998;19.880;2022-10-16T04:29:33;8.90;99.90
18268;DHT22;9260;49.998;19.880;2022-10-16T04:39:37;8.70;99.90
18268;DHT22;9260;49.998;19.880;2022-10-16T04:49:41;8.20;99.90
18268;DHT22;9260;49.998;19.880;2022-10-16T04:59:44;7.90;99.90
18268;DHT22;9260;49.998;19.880;2022-10-16T05:09:49;7.70;99.90
18268;DHT22;9260;49.998;19.880;2022-10-16T05:19:52;7.60;99.90
18268;DHT22;9260;49.998;19.880;2022-10-16T05:29:57;7.60;99.90
18268;DHT22;9260;49.998;19.880;2022-10-16T05:40:01;7.70;99.90
18268;DHT22;9260;49.998;19.880;2022-10-16T05:50:06;8.00;99.90
18268;DHT22;9260;49.998;19.880;2022-10-16T06:00:10;8.50;99.90
18268;DHT22;9260;49.998;19.880;2022-10-16T06:10:15;9.00;99.90
18268;DHT22;9260;49.998;19.880;2022-10-16T06:20:19;9.50;99.90
18268;DHT22;9260;49.998;19.880;2022-10-16T06:30:23;10.10;99.90
18268;DHT22;9260;49.998;19.880;2022-10-16T06:40:27;11.00;99.90
18268;DHT22;9260;49.998;19.880;2022-10-16T06:50:31;11.90;99.90
18268;DHT22;9260;49.998;19.880;2022-10-16T07:00:34;13.10;99.90
18268;DHT22;9260;49.998;19.880;2022-10-16T07:10:39;13.60;99.90
18268;DHT22;9260;49.998;19.880;2022-10-16T07:20:42;13.80;99.90
18268;DHT22;9260;49.998;19.880;2022-10-16T07:30:47;14.00;99.90
18268;DHT22;9260;49.998;19.880;2022-10-16T07:40:56;14.70;99.90
18268;DHT22;9260;49.998;19.880;2022-10-16T07:51:03;17.50;99.90
18268;DHT22;9260;49.998;19.880;2022-10-16T08:01:09;19.10;99.90
18268;DHT22;9260;49.998;19.880;2022-10-16T08:11:16;19.50;99.90
18268;DHT22;9260;49.998;19.880;2022-10-16T08:21:21;20.70;99.90
18268;DHT22;9260;49.998;19.880;2022-10-16T08:31:26;22.30;99.90
18268;DHT22;9260;49.998;19.880;2022-10-16T08:41:52;23.50;99.90
18268;DHT22;9260;49.998;19.880;2022-10-16T08:52:11;28.20;99.90
18268;DHT22;9260;49.998;19.880;2022-10-16T09:02:24;29.40;99.90
18268;DHT22;9260;49.998;19.880;2022-10-16T09:12:38;31.50;99.90
18268;DHT22;9260;49.998;19.880;2022-10-16T09:22:44;31.20;99.90
18268;DHT22;9260;49.998;19.880;2022-10-16T09:32:51;29.70;99.90
18268;DHT22;9260;49.998;19.880;2022-10-16T09:43:01;31.40;99.90
18268;DHT22;9260;49.998;19.880;2022-10-16T09:53:11;31.50;99.90
18268;DHT22;9260;49.998;19.880;2022-10-16T10:03:27;31.10;99.90
18268;DHT22;9260;49.998;19.880;2022-10-16T10:13:37;32.20;99.90
18268;DHT22;9260;49.998;19.880;2022-10-16T10:23:41;30.00;99.90
18268;DHT22;9260;49.998;19.880;2022-10-16T10:33:52;31.30;99.90
18268;DHT22;9260;49.998;19.880;2022-10-16T10:44:03;31.20;99.90
18268;DHT22;9260;49.998;19.880;2022-10-16T10:54:16;34.40;99.90
18268;DHT22;9260;49.998;19.880;2022-10-16T11:04:49;32.10;99.90
18268;DHT22;9260;49.998;19.880;2022-10-16T11:15:21;28.70;99.90
18268;DHT22;9260;49.998;19.880;2022-10-16T11:25:28;26.20;99.90
18268;DHT22;9260;49.998;19.880;2022-10-16T11:35:39;24.70;99.90
18268;DHT22;9260;49.998;19.880;2022-10-16T11:45:48;24.50;99.90
18268;DHT22;9260;49.998;19.880;2022-10-16T11:55:54;23.40;99.90
18268;DHT22;9260;49.998;19.880;2022-10-16T12:06:05;22.30;99.90
18268;DHT22;9260;49.998;19.880;2022-10-16T12:16:23;21.60;99.90
18268;DHT22;9260;49.998;19.880;2022-10-16T12:26:29;21.00;99.90
18268;DHT22;9260;49.998;19.880;2022-10-16T12:36:34;21.10;99.90
18268;DHT22;9260;49.998;19.880;2022-10-16T12:46:39;22.70;99.90
18268;DHT22;9260;49.998;19.880;2022-10-16T12:56:51;22.30;99.90
18268;DHT22;9260;49.998;19.880;2022-10-16T13:07:40;21.70;99.90
18268;DHT22;9260;49.998;19.880;2022-10-16T13:17:59;21.60;99.90
18268;DHT22;9260;49.998;19.880;2022-10-16T13:28:08;21.20;99.90
18268;DHT22;9260;49.998;19.880;2022-10-16T13:38:16;21.30;99.90
18268;DHT22;9260;49.998;19.880;2022-10-16T13:48:20;20.80;99.90
18268;DHT22;9260;49.998;19.880;2022-10-16T13:58:25;20.50;99.90
18268;DHT22;9260;49.998;19.880;2022-10-16T14:08:29;20.10;99.90
18268;DHT22;9260;49.998;19.880;2022-10-16T14:18:35;19.40;99.90
18268;DHT22;9260;49.998;19.880;2022-10-16T14:28:42;19.00;99.90
18268;DHT22;9260;49.998;19.880;2022-10-16T14:39:03;18.70;99.90
18268;DHT22;9260;49.998;19.880;2022-10-16T14:49:16;18.80;99.90
18268;DHT22;9260;49.998;19.880;2022-10-16T14:59:27;19.00;99.90
18268;DHT22;9260;49.998;19.880;2022-10-16T15:09:32;18.50;99.90
18268;DHT22;9260;49.998;19.880;2022-10-16T15:19:36;17.70;99.90
18268;DHT22;9260;49.998;19.880;2022-10-16T15:29:39;17.20;99.90
18268;DHT22;9260;49.998;19.880;2022-10-16T15:39:44;17.00;99.90
18268;DHT22;9260;49.998;19.880;2022-10-16T15:49:48;16.40;99.90
18268;DHT22;9260;49.998;19.880;2022-10-16T15:59:52;15.50;99.90
18268;DHT22;9260;49.998;19.880;2022-10-16T16:10:01;14.80;99.90
18268;DHT22;9260;49.998;19.880;2022-10-16T16:20:07;14.30;99.90
18268;DHT22;9260;49.998;19.880;2022-10-16T16:30:12;13.70;99.90
18268;DHT22;9260;49.998;19.880;2022-10-16T16:40:22;13.00;99.90
18268;DHT22;9260;49.998;19.880;2022-10-16T16:50:25;12.40;99.90
18268;DHT22;9260;49.998;19.880;2022-10-16T17:00:30;12.00;99.90
18268;DHT22;9260;49.998;19.880;2022-10-16T17:10:33;11.60;99.90
18268;DHT22;9260;49.998;19.880;2022-10-16T17:20:38;11.30;99.90
18268;DHT22;9260;49.998;19.880;2022-10-16T17:30:42;11.20;99.90
18268;DHT22;9260;49.998;19.880;2022-10-16T17:40:47;11.20;99.90
18268;DHT22;9260;49.998;19.880;2022-10-16T17:50:51;11.00;99.90
18268;DHT22;9260;49.998;19.880;2022-10-16T18:00:55;10.80;99.90
18268;DHT22;9260;49.998;19.880;2022-10-16T18:10:58;10.40;99.90
18268;DHT22;9260;49.998;19.880;2022-10-16T18:21:06;10.20;99.90
18268;DHT22;9260;49.998;19.880;2022-10-16T18:31:13;10.00;99.90
18268;DHT22;9260;49.998;19.880;2022-10-16T18:41:18;9.90;99.90
18268;DHT22;9260;49.998;19.880;2022-10-16T18:51:23;9.70;99.90
18268;DHT22;9260;49.998;19.880;2022-10-16T19:01:31;9.50;99.90
18268;DHT22;9260;49.998;19.880;2022-10-16T19:11:36;9.50;99.90
18268;DHT22;9260;49.998;19.880;2022-10-16T19:21:44;9.40;99.90
18268;DHT22;9260;49.998;19.880;2022-10-16T19:31:49;9.40;99.90
18268;DHT22;9260;49.998;19.880;2022-10-16T19:41:54;9.10;99.90
18268;DHT22;9260;49.998;19.880;2022-10-16T19:51:57;9.10;99.90
18268;DHT22;9260;49.998;19.880;2022-10-16T20:02:02;9.00;99.90
18268;DHT22;9260;49.998;19.880;2022-10-16T20:12:05;8.90;99.90
18268;DHT22;9260;49.998;19.880;2022-10-16T20:22:10;8.80;99.90
18268;DHT22;9260;49.998;19.880;2022-10-16T20:32:13;8.80;99.90
18268;DHT22;9260;49.998;19.880;2022-10-16T20:42:18;8.80;99.90
18268;DHT22;9260;49.998;19.880;2022-10-16T20:52:21;8.70;99.90
18268;DHT22;9260;49.998;19.880;2022-10-16T21:02:27;8.60;99.90
18268;DHT22;9260;49.998;19.880;2022-10-16T21:12:30;8.60;99.90
18268;DHT22;9260;49.998;19.880;2022-10-16T21:22:35;8.40;99.90
18268;DHT22;9260;49.998;19.880;2022-10-16T21:32:38;8.10;99.90
18268;DHT22;9260;49.998;19.880;2022-10-16T21:42:43;8.00;99.90
18268;DHT22;9260;49.998;19.880;2022-10-16T21:52:46;7.90;99.90
18268;DHT22;9260;49.998;19.880;2022-10-16T22:02:51;7.70;99.90
18268;DHT22;9260;49.998;19.880;2022-10-16T22:12:54;7.50;99.90
18268;DHT22;9260;49.998;19.880;2022-10-16T22:22:59;7.40;99.90
18268;DHT22;9260;49.998;19.880;2022-10-16T22:33:02;7.30;99.90
18268;DHT22;9260;49.998;19.880;2022-10-16T22:43:07;7.20;99.90
18268;DHT22;9260;49.998;19.880;2022-10-16T22:53:11;7.30;99.90
18268;DHT22;9260;49.998;19.880;2022-10-16T23:03:15;7.10;99.90
18268;DHT22;9260;49.998;19.880;2022-10-16T23:13:19;7.10;99.90
18268;DHT22;9260;49.998;19.880;2022-10-16T23:23:23;6.90;99.90
18268;DHT22;9260;49.998;19.880;2022-10-16T23:33:26;6.90;99.90
18268;DHT22;9260;49.998;19.880;2022-10-16T23:43:31;6.70;99.90
18268;DHT22;9260;49.998;19.880;2022-10-16T23:53:35;6.60;99.90
